Sarov, Russia
Current Conditions -  °F | °C
As of 5:30 PM on Friday 28 Nov 2014 (Local Time) from UWGG Reporting Station
Overcast Overcast  
Wind Chill: 19°   Ceiling: 600
Heat Index: 19°   Visibility: 6mi
Dew Point: 18°   Wind: 2mph
Humidity: 93%   Direction: NA
Pressure: 30.68"   Gusts: NA
Location:  54.93°N, 43.33°E
Report Text: UWGG 281430Z VRB01MPS 9000 OVC006 M07/M08 Q1039 NOSIG 36190042RMK QFE772
Loading
Personal Weather Stations






























Interactive Weather Map New forecast layout! Learn more

10-Day Weather Forecast

Advertisements
Track Severe Weather on mobile